createdAt,value
2023-05-03T00:02:23.573Z,9.59
2023-05-03T00:04:52.710Z,9.55
2023-05-03T00:07:19.397Z,9.53
2023-05-03T00:09:46.019Z,9.50
2023-05-03T00:12:12.662Z,9.47
2023-05-03T00:14:39.436Z,9.44
2023-05-03T00:17:06.975Z,9.40
2023-05-03T00:19:34.248Z,9.38
2023-05-03T00:22:01.599Z,9.36
2023-05-03T00:24:28.502Z,9.34
2023-05-03T00:26:55.527Z,9.32
2023-05-03T00:29:22.366Z,9.30
2023-05-03T00:31:49.129Z,9.27
2023-05-03T00:34:15.757Z,9.26
2023-05-03T00:36:42.323Z,9.23
2023-05-03T00:39:08.979Z,9.21
2023-05-03T00:41:35.700Z,9.20
2023-05-03T00:44:02.896Z,9.16
2023-05-03T00:46:29.742Z,9.16
2023-05-03T00:48:56.721Z,9.14
2023-05-03T00:51:23.790Z,9.13
2023-05-03T00:53:51.139Z,9.12
2023-05-03T00:56:20.088Z,9.10
2023-05-03T00:58:47.151Z,9.13
2023-05-03T01:01:13.811Z,9.14
2023-05-03T01:03:41.245Z,9.16
2023-05-03T01:06:31.467Z,9.19
2023-05-03T01:09:21.436Z,9.24
2023-05-03T01:12:19.482Z,9.31
2023-05-03T01:15:08.366Z,9.38
2023-05-03T01:17:50.019Z,9.46
2023-05-03T01:20:22.454Z,9.52
2023-05-03T01:22:58.175Z,9.58
2023-05-03T01:25:26.300Z,9.65
2023-05-03T01:27:52.846Z,9.62
2023-05-03T01:30:23.579Z,9.74
2023-05-03T01:32:59.740Z,9.80
2023-05-03T01:35:47.555Z,9.88
2023-05-03T01:38:14.653Z,9.90
2023-05-03T01:40:46.779Z,9.94
2023-05-03T01:43:16.463Z,9.98
2023-05-03T01:45:43.974Z,10.01
2023-05-03T01:48:13.508Z,10.05
2023-05-03T01:50:40.122Z,10.07
2023-05-03T01:53:06.901Z,10.10
2023-05-03T01:55:33.566Z,10.11
2023-05-03T01:58:00.647Z,10.11
2023-05-03T02:00:27.326Z,10.13
2023-05-03T02:02:54.060Z,10.14
2023-05-03T02:05:20.662Z,10.16
2023-05-03T02:07:47.428Z,10.17
2023-05-03T02:10:14.031Z,10.20
2023-05-03T02:12:44.845Z,10.21
2023-05-03T02:15:12.588Z,10.24
2023-05-03T02:17:40.005Z,10.24
2023-05-03T02:20:07.283Z,10.26
2023-05-03T02:22:33.824Z,10.25
2023-05-03T02:25:00.377Z,10.26
2023-05-03T02:27:27.128Z,10.26
2023-05-03T02:29:53.734Z,10.26
2023-05-03T02:32:21.349Z,10.25
2023-05-03T02:34:49.588Z,10.27
2023-05-03T02:37:20.492Z,10.27
2023-05-03T02:39:47.480Z,10.28
2023-05-03T02:42:15.854Z,10.27
2023-05-03T02:44:43.975Z,10.27
2023-05-03T02:47:10.721Z,10.26
2023-05-03T02:49:40.174Z,10.25
2023-05-03T02:52:06.966Z,10.24
2023-05-03T02:54:33.585Z,10.23
2023-05-03T02:57:07.716Z,10.23
2023-05-03T02:59:34.353Z,10.24
2023-05-03T03:02:02.025Z,10.23
2023-05-03T03:04:32.480Z,10.23
2023-05-03T03:06:59.086Z,10.23
2023-05-03T03:09:25.687Z,10.22
2023-05-03T03:11:53.449Z,10.21
2023-05-03T03:14:20.891Z,10.17
2023-05-03T03:16:47.987Z,10.14
2023-05-03T03:19:14.592Z,10.13
2023-05-03T03:21:41.403Z,10.09
2023-05-03T03:24:09.109Z,10.06
2023-05-03T03:26:35.739Z,10.05
2023-05-03T03:29:02.709Z,10.02
2023-05-03T03:31:29.660Z,10.01
2023-05-03T03:33:56.330Z,10.02
2023-05-03T03:36:25.839Z,10.02
2023-05-03T03:38:52.786Z,10.02
2023-05-03T03:41:20.492Z,10.03
2023-05-03T03:43:47.426Z,10.03
2023-05-03T03:46:18.282Z,10.03
2023-05-03T03:48:47.035Z,10.05
2023-05-03T03:51:13.796Z,10.07
2023-05-03T03:53:45.520Z,10.09
2023-05-03T03:56:12.701Z,10.12
2023-05-03T03:58:40.528Z,10.15
2023-05-03T04:01:08.870Z,10.17
2023-05-03T04:03:36.535Z,10.21
2023-05-03T04:06:03.811Z,10.25
2023-05-03T04:08:30.615Z,10.29
2023-05-03T04:10:57.285Z,10.32
2023-05-03T04:13:25.015Z,10.32
2023-05-03T04:15:55.639Z,10.35
2023-05-03T04:18:22.645Z,10.37
2023-05-03T04:20:50.182Z,10.39
2023-05-03T04:23:17.028Z,10.42
2023-05-03T04:25:44.405Z,10.45
2023-05-03T04:28:12.796Z,10.50
2023-05-03T04:30:42.900Z,10.53
2023-05-03T04:33:09.923Z,10.59
2023-05-03T04:35:36.647Z,10.64
2023-05-03T04:38:08.727Z,10.70
2023-05-03T04:40:35.837Z,10.75
2023-05-03T04:43:07.115Z,10.80
2023-05-03T04:45:37.718Z,10.87
2023-05-03T04:48:06.947Z,10.93
2023-05-03T04:50:34.128Z,10.98
2023-05-03T04:53:00.838Z,11.03
2023-05-03T04:55:29.428Z,11.07
2023-05-03T04:57:58.552Z,11.11
2023-05-03T05:00:25.267Z,11.15
2023-05-03T05:02:58.277Z,11.19
2023-05-03T05:05:28.184Z,11.23
2023-05-03T05:07:54.816Z,11.29
2023-05-03T05:10:21.445Z,11.38
2023-05-03T05:12:48.379Z,11.47
2023-05-03T05:15:15.066Z,11.55
2023-05-03T05:17:45.100Z,11.67
2023-05-03T05:20:12.136Z,11.82
2023-05-03T05:22:41.159Z,11.95
2023-05-03T05:25:08.620Z,12.02
2023-05-03T05:27:35.386Z,12.07
2023-05-03T05:30:04.226Z,12.13
2023-05-03T05:32:32.369Z,12.15
2023-05-03T05:34:59.088Z,12.20
2023-05-03T05:37:27.853Z,12.23
2023-05-03T05:39:57.643Z,12.24
2023-05-03T05:42:27.708Z,12.29
2023-05-03T05:44:54.311Z,12.30
2023-05-03T05:47:21.598Z,12.33
2023-05-03T05:49:50.526Z,12.34
2023-05-03T05:52:17.151Z,12.36
2023-05-03T05:54:43.877Z,12.34
2023-05-03T05:57:10.601Z,12.34
2023-05-03T05:59:37.419Z,12.41
2023-05-03T06:02:04.314Z,12.43
2023-05-03T06:04:31.032Z,12.43
2023-05-03T06:06:58.052Z,12.44
2023-05-03T06:09:25.315Z,12.45
2023-05-03T06:11:56.259Z,12.48
2023-05-03T06:14:23.835Z,12.50
2023-05-03T06:16:50.419Z,12.56
2023-05-03T06:19:17.154Z,12.59
2023-05-03T06:21:43.888Z,12.62
2023-05-03T06:24:10.606Z,12.67
2023-05-03T06:26:37.210Z,12.74
2023-05-03T06:29:04.365Z,12.83
2023-05-03T06:31:31.096Z,12.87
2023-05-03T06:33:58.348Z,12.91
2023-05-03T06:36:25.886Z,12.97
2023-05-03T06:38:52.693Z,13.03
2023-05-03T06:41:19.418Z,13.03
2023-05-03T06:43:45.992Z,13.06
2023-05-03T06:46:12.686Z,13.09
2023-05-03T06:48:39.338Z,13.14
2023-05-03T06:51:06.152Z,13.21
2023-05-03T06:53:32.769Z,13.22
2023-05-03T06:55:59.346Z,13.26
2023-05-03T06:58:25.907Z,13.32
2023-05-03T07:00:53.036Z,13.34
2023-05-03T07:03:19.776Z,13.35
2023-05-03T07:05:46.588Z,13.34
2023-05-03T07:08:13.215Z,13.33
2023-05-03T07:10:39.845Z,13.31
2023-05-03T07:13:06.517Z,13.29
2023-05-03T07:15:33.409Z,13.29
2023-05-03T07:18:00.172Z,13.31
2023-05-03T07:20:26.857Z,13.25
2023-05-03T07:22:53.437Z,13.21
2023-05-03T07:25:20.095Z,13.25
2023-05-03T07:27:46.812Z,13.29
2023-05-03T07:30:13.760Z,13.31
2023-05-03T07:32:40.602Z,13.37
2023-05-03T07:35:07.869Z,13.42
2023-05-03T07:37:34.579Z,13.48
2023-05-03T07:40:01.351Z,13.60
2023-05-03T07:42:28.157Z,13.69
2023-05-03T07:44:54.711Z,13.75
2023-05-03T07:47:22.154Z,13.84
2023-05-03T07:49:49.025Z,13.97
2023-05-03T07:52:15.770Z,14.05
2023-05-03T07:54:42.433Z,14.12
2023-05-03T07:57:09.094Z,14.20
2023-05-03T07:59:35.689Z,14.27
2023-05-03T08:02:02.510Z,14.39
2023-05-03T08:04:29.467Z,14.50
2023-05-03T08:06:56.480Z,14.59
2023-05-03T08:09:23.203Z,14.63
2023-05-03T08:11:49.770Z,14.66
2023-05-03T08:14:16.410Z,14.71
2023-05-03T08:16:42.979Z,14.78
2023-05-03T08:19:09.642Z,14.94
2023-05-03T08:21:36.182Z,15.02
2023-05-03T08:24:02.858Z,15.02
2023-05-03T08:26:30.481Z,14.98
2023-05-03T08:28:57.131Z,15.00
2023-05-03T08:31:23.805Z,14.98
2023-05-03T08:33:50.388Z,15.02
2023-05-03T08:36:17.295Z,15.09
2023-05-03T08:38:43.982Z,15.15
2023-05-03T08:41:31.285Z,15.26
2023-05-03T08:44:00.507Z,15.46
2023-05-03T08:46:28.871Z,15.63
2023-05-03T08:48:56.396Z,15.84
2023-05-03T08:51:24.737Z,16.00
2023-05-03T08:53:51.659Z,16.14
2023-05-03T08:56:28.119Z,16.28
2023-05-03T08:58:55.034Z,16.42
2023-05-03T09:01:21.772Z,16.47
2023-05-03T09:03:50.771Z,16.60
2023-05-03T09:06:22.368Z,16.67
2023-05-03T09:08:49.196Z,16.87
2023-05-03T09:11:30.238Z,16.95
2023-05-03T09:14:12.738Z,17.01
2023-05-03T09:16:41.398Z,17.15
2023-05-03T09:19:08.906Z,17.32
2023-05-03T09:21:37.023Z,17.43
2023-05-03T09:24:16.550Z,17.49
2023-05-03T09:26:43.813Z,17.55
2023-05-03T09:29:10.407Z,17.55
2023-05-03T09:31:47.827Z,17.53
2023-05-03T09:34:21.849Z,17.43
2023-05-03T09:36:48.609Z,17.34
2023-05-03T09:39:19.081Z,17.23
2023-05-03T09:41:46.379Z,17.17
2023-05-03T09:44:13.200Z,17.16
2023-05-03T09:46:39.835Z,17.18
2023-05-03T09:49:06.945Z,17.17
2023-05-03T09:51:34.107Z,17.19
2023-05-03T09:54:01.214Z,17.27
2023-05-03T09:56:29.136Z,17.37
2023-05-03T09:58:55.741Z,17.51
2023-05-03T10:01:24.904Z,17.60
2023-05-03T10:03:52.319Z,17.70
2023-05-03T10:06:22.794Z,17.83
2023-05-03T10:08:53.480Z,17.95
2023-05-03T10:11:23.897Z,18.02
2023-05-03T10:13:50.585Z,18.15
2023-05-03T10:16:26.573Z,18.18
2023-05-03T10:18:59.802Z,18.23
2023-05-03T10:21:58.213Z,18.29
2023-05-03T10:24:24.980Z,18.35
2023-05-03T10:26:52.065Z,18.42
2023-05-03T10:29:33.829Z,18.52
2023-05-03T10:32:02.027Z,18.61
2023-05-03T10:34:35.143Z,18.63
2023-05-03T10:37:03.349Z,18.88
2023-05-03T10:39:31.015Z,19.07
2023-05-03T10:42:09.060Z,19.25
2023-05-03T10:44:40.515Z,19.38
2023-05-03T10:47:13.633Z,19.40
2023-05-03T10:49:40.818Z,19.37
2023-05-03T10:52:35.254Z,19.17
2023-05-03T10:55:03.063Z,19.06
2023-05-03T10:57:32.170Z,18.97
2023-05-03T10:59:59.030Z,18.83
2023-05-03T11:02:37.885Z,18.73
2023-05-03T11:05:09.224Z,18.62
2023-05-03T11:07:35.922Z,18.53
2023-05-03T11:10:16.895Z,18.33
2023-05-03T11:12:43.549Z,18.18
2023-05-03T11:15:11.044Z,18.05
2023-05-03T11:17:38.835Z,17.91
2023-05-03T11:20:07.819Z,17.81
2023-05-03T11:22:36.305Z,17.77
2023-05-03T11:25:03.540Z,17.71
2023-05-03T11:27:30.631Z,17.67
2023-05-03T11:29:57.390Z,17.62
2023-05-03T11:32:27.974Z,17.63
2023-05-03T11:34:54.773Z,17.66
2023-05-03T11:37:21.453Z,17.67
2023-05-03T11:39:48.169Z,17.65
2023-05-03T11:42:14.809Z,17.76
2023-05-03T11:44:41.387Z,17.81
2023-05-03T11:47:08.356Z,17.88
2023-05-03T11:49:35.328Z,17.86
2023-05-03T11:52:02.149Z,17.92
2023-05-03T11:54:30.127Z,17.92
2023-05-03T11:56:58.486Z,18.07
2023-05-03T11:59:36.935Z,18.01
2023-05-03T12:02:03.849Z,18.00
2023-05-03T12:04:31.089Z,17.98
2023-05-03T12:06:58.279Z,18.05
2023-05-03T12:09:27.298Z,18.20
2023-05-03T12:11:55.367Z,18.30
2023-05-03T12:14:22.778Z,18.47
2023-05-03T12:16:52.177Z,18.62
2023-05-03T12:19:26.091Z,18.68
2023-05-03T12:22:04.686Z,18.79
2023-05-03T12:24:39.800Z,18.96
2023-05-03T12:27:08.639Z,19.01
2023-05-03T12:29:35.807Z,19.14
2023-05-03T12:32:03.777Z,19.22
2023-05-03T12:34:35.455Z,19.37
2023-05-03T12:37:04.859Z,19.41
2023-05-03T12:39:33.013Z,19.43
2023-05-03T12:44:29.711Z,19.54
2023-05-03T12:47:00.717Z,19.56
2023-05-03T12:49:27.892Z,19.52
2023-05-03T12:52:06.836Z,19.31
2023-05-03T12:54:42.322Z,19.16
2023-05-03T12:57:14.653Z,19.10
2023-05-03T12:59:43.394Z,19.09
2023-05-03T13:07:13.379Z,19.25
2023-05-03T13:12:27.956Z,19.39
2023-05-03T13:14:54.813Z,19.44
2023-05-03T13:17:21.771Z,19.60
2023-05-03T13:19:49.677Z,19.74
2023-05-03T13:22:17.176Z,19.74
2023-05-03T13:24:45.626Z,19.71
2023-05-03T13:27:12.755Z,19.63
2023-05-03T13:29:39.838Z,19.53
2023-05-03T13:32:07.146Z,19.45
2023-05-03T13:34:34.485Z,19.37
2023-05-03T13:37:04.696Z,19.29
2023-05-03T13:39:32.079Z,19.27
2023-05-03T13:41:58.784Z,19.17
2023-05-03T13:44:25.622Z,19.13
2023-05-03T13:46:52.799Z,19.06
2023-05-03T13:49:19.776Z,18.97
2023-05-03T13:51:46.501Z,18.90
2023-05-03T13:54:13.149Z,18.85
2023-05-03T13:56:39.738Z,18.74
2023-05-03T13:59:08.257Z,18.66
2023-05-03T14:01:34.920Z,18.64
2023-05-03T14:04:01.580Z,18.62
2023-05-03T14:06:29.286Z,18.63
2023-05-03T14:08:56.951Z,18.66
2023-05-03T14:11:24.180Z,18.69
2023-05-03T14:13:57.040Z,18.71
2023-05-03T14:16:39.218Z,18.81
2023-05-03T14:19:07.484Z,18.86
2023-05-03T14:21:34.244Z,18.88
2023-05-03T14:24:00.958Z,18.92
2023-05-03T14:26:27.649Z,19.01
2023-05-03T14:28:54.286Z,19.06
2023-05-03T14:31:21.088Z,19.12
2023-05-03T14:33:47.685Z,19.22
2023-05-03T14:36:14.492Z,19.26
2023-05-03T14:38:41.253Z,19.38
2023-05-03T14:41:07.838Z,19.49
2023-05-03T14:43:34.562Z,19.58
2023-05-03T14:46:01.116Z,19.79
2023-05-03T14:48:27.695Z,20.01
2023-05-03T14:50:54.447Z,20.35
2023-05-03T14:53:21.199Z,20.74
2023-05-03T14:55:47.836Z,21.13
2023-05-03T14:58:14.506Z,21.52
2023-05-03T15:00:41.650Z,21.90
2023-05-03T15:03:09.767Z,22.10
2023-05-03T15:05:41.800Z,22.14
2023-05-03T15:08:08.447Z,22.37
2023-05-03T15:10:38.366Z,22.51
2023-05-03T15:13:04.989Z,22.67
2023-05-03T15:15:32.015Z,22.83
2023-05-03T15:17:58.659Z,22.90
2023-05-03T15:20:25.362Z,23.03
2023-05-03T15:22:51.927Z,23.16
2023-05-03T15:25:18.492Z,23.45
2023-05-03T15:27:45.112Z,23.60
2023-05-03T15:30:12.292Z,23.71
2023-05-03T15:32:39.069Z,23.70
2023-05-03T15:35:06.345Z,23.82
2023-05-03T15:37:35.134Z,23.94
2023-05-03T15:40:03.062Z,24.20
2023-05-03T15:42:29.772Z,24.50
2023-05-03T15:44:56.364Z,24.83
2023-05-03T15:47:23.001Z,24.97
2023-05-03T15:49:50.226Z,25.01
2023-05-03T15:52:16.870Z,24.93
2023-05-03T15:54:46.068Z,24.66
2023-05-03T15:57:12.741Z,24.18
2023-05-03T15:59:39.442Z,23.68
2023-05-03T16:02:07.215Z,23.25
2023-05-03T16:04:33.960Z,22.81
2023-05-03T16:07:00.581Z,22.43
2023-05-03T16:09:27.372Z,22.14
2023-05-03T16:11:53.995Z,21.87
2023-05-03T16:14:20.813Z,21.60
2023-05-03T16:16:48.497Z,21.37
2023-05-03T16:19:16.458Z,21.23
2023-05-03T16:21:43.675Z,21.17
2023-05-03T16:24:10.475Z,21.17
2023-05-03T16:26:37.257Z,21.13
2023-05-03T16:29:04.134Z,21.18
2023-05-03T16:31:31.441Z,21.30
2023-05-03T16:33:58.073Z,21.38
2023-05-03T16:36:24.703Z,21.53
2023-05-03T16:38:51.278Z,21.74
2023-05-03T16:41:17.865Z,22.00
2023-05-03T16:43:44.642Z,22.22
2023-05-03T16:46:11.206Z,22.49
2023-05-03T16:48:37.894Z,22.74
2023-05-03T16:51:04.672Z,23.01
2023-05-03T16:53:31.280Z,23.33
2023-05-03T16:55:57.876Z,23.58
2023-05-03T16:58:24.561Z,23.74
2023-05-03T17:00:51.491Z,23.96
2023-05-03T17:03:18.336Z,24.16
2023-05-03T17:05:45.138Z,24.32
2023-05-03T17:08:12.001Z,24.53
2023-05-03T17:10:38.715Z,24.74
2023-05-03T17:13:05.852Z,24.87
2023-05-03T17:15:32.848Z,24.90
2023-05-03T17:18:01.327Z,24.94
2023-05-03T17:20:30.391Z,24.99
2023-05-03T17:22:56.963Z,25.03
2023-05-03T17:25:23.585Z,25.00
2023-05-03T17:27:50.173Z,24.99
2023-05-03T17:30:17.804Z,24.95
2023-05-03T17:32:46.150Z,24.88
2023-05-03T17:35:13.334Z,24.82
2023-05-03T17:37:40.448Z,24.72
2023-05-03T17:40:07.671Z,24.60
2023-05-03T17:42:34.803Z,24.47
2023-05-03T17:45:01.913Z,24.27
2023-05-03T17:47:28.982Z,24.07
2023-05-03T17:49:55.978Z,23.92
2023-05-03T17:52:23.038Z,23.72
2023-05-03T17:54:49.803Z,23.45
2023-05-03T17:57:16.557Z,23.18
2023-05-03T17:59:43.166Z,22.86
2023-05-03T18:02:09.995Z,22.51
2023-05-03T18:04:36.711Z,22.14
2023-05-03T18:07:03.300Z,21.76
2023-05-03T18:09:29.902Z,21.38
2023-05-03T18:11:56.576Z,21.02
2023-05-03T18:14:23.230Z,20.66
2023-05-03T18:16:49.807Z,20.32
2023-05-03T18:19:16.404Z,20.02
2023-05-03T18:21:42.977Z,19.72
2023-05-03T18:24:09.553Z,19.44
2023-05-03T18:26:37.509Z,19.16
2023-05-03T18:29:04.141Z,18.91
2023-05-03T18:31:30.796Z,18.66
2023-05-03T18:33:58.879Z,18.44
2023-05-03T18:36:25.886Z,18.21
2023-05-03T18:38:52.553Z,17.99
2023-05-03T18:41:19.275Z,17.77
2023-05-03T18:43:46.738Z,17.58
2023-05-03T18:46:19.814Z,17.39
2023-05-03T18:48:47.846Z,17.22
2023-05-03T18:51:14.680Z,17.04
2023-05-03T18:53:41.279Z,16.90
2023-05-03T18:56:07.887Z,16.73
2023-05-03T18:58:34.476Z,16.58
2023-05-03T19:01:01.195Z,16.43
2023-05-03T19:03:28.680Z,16.29
2023-05-03T19:06:00.262Z,16.14
2023-05-03T19:08:27.269Z,16.02
2023-05-03T19:10:53.974Z,15.89
2023-05-03T19:13:20.583Z,15.77
2023-05-03T19:15:47.220Z,15.67
2023-05-03T19:18:16.076Z,15.54
2023-05-03T19:20:43.309Z,15.44
2023-05-03T19:23:09.916Z,15.33
2023-05-03T19:25:36.522Z,15.23
2023-05-03T19:28:03.362Z,15.12
2023-05-03T19:30:29.933Z,15.03
2023-05-03T19:32:56.686Z,14.96
2023-05-03T19:35:23.324Z,14.86
2023-05-03T19:37:49.899Z,14.78
2023-05-03T19:40:16.666Z,14.71
2023-05-03T19:42:43.284Z,14.63
2023-05-03T19:45:10.360Z,14.55
2023-05-03T19:47:36.925Z,14.49
2023-05-03T19:50:03.852Z,14.43
2023-05-03T19:52:30.657Z,14.38
2023-05-03T19:54:57.335Z,14.32
2023-05-03T19:57:24.298Z,14.27
2023-05-03T19:59:50.869Z,14.23
2023-05-03T20:02:17.645Z,14.20
2023-05-03T20:04:44.216Z,14.16
2023-05-03T20:07:10.797Z,14.13
2023-05-03T20:09:37.485Z,14.09
2023-05-03T20:12:04.429Z,14.05
2023-05-03T20:14:31.040Z,14.04
2023-05-03T20:16:57.625Z,14.00
2023-05-03T20:19:25.263Z,13.97
2023-05-03T20:21:51.969Z,13.92
2023-05-03T20:24:20.573Z,13.89
2023-05-03T20:26:47.157Z,13.86
2023-05-03T20:29:13.873Z,13.83
2023-05-03T20:31:40.568Z,13.79
2023-05-03T20:34:07.257Z,13.77
2023-05-03T20:36:33.984Z,13.72
2023-05-03T20:39:00.696Z,13.68
2023-05-03T20:41:27.287Z,13.65
2023-05-03T20:43:54.022Z,13.61
2023-05-03T20:46:20.782Z,13.56
2023-05-03T20:48:47.472Z,13.53
2023-05-03T20:51:14.262Z,13.49
2023-05-03T20:53:40.934Z,13.45
2023-05-03T20:56:07.991Z,13.40
2023-05-03T20:58:35.290Z,13.36
2023-05-03T21:01:04.784Z,13.32
2023-05-03T21:03:31.519Z,13.28
2023-05-03T21:05:58.473Z,13.22
2023-05-03T21:08:25.229Z,13.17
2023-05-03T21:10:52.545Z,13.12
2023-05-03T21:13:19.308Z,13.05
2023-05-03T21:15:46.128Z,13.01
2023-05-03T21:18:12.820Z,12.96
2023-05-03T21:20:39.512Z,12.90
2023-05-03T21:23:06.186Z,12.84
2023-05-03T21:25:32.911Z,12.79
2023-05-03T21:27:59.636Z,12.74
2023-05-03T21:30:26.227Z,12.69
2023-05-03T21:32:52.957Z,12.63
2023-05-03T21:35:20.145Z,12.58
2023-05-03T21:37:47.203Z,12.53
2023-05-03T21:40:14.697Z,12.51
2023-05-03T21:42:42.382Z,12.47
2023-05-03T21:45:10.099Z,12.42
2023-05-03T21:47:36.951Z,12.39
2023-05-03T21:50:04.997Z,12.36
2023-05-03T21:52:32.692Z,12.31
2023-05-03T21:54:59.370Z,12.28
2023-05-03T21:57:26.624Z,12.25
2023-05-03T21:59:53.717Z,12.21
2023-05-03T22:02:21.094Z,12.20
2023-05-03T22:04:49.070Z,12.16
2023-05-03T22:07:16.486Z,12.12
2023-05-03T22:09:47.082Z,12.08
2023-05-03T22:12:23.633Z,12.06
2023-05-03T22:14:51.262Z,12.02
2023-05-03T22:17:17.912Z,11.98
2023-05-03T22:19:44.704Z,11.96
2023-05-03T22:22:11.298Z,11.92
2023-05-03T22:24:38.208Z,11.88
2023-05-03T22:27:04.799Z,11.84
2023-05-03T22:29:31.492Z,11.82
2023-05-03T22:31:58.278Z,11.77
2023-05-03T22:34:25.044Z,11.74
2023-05-03T22:36:51.709Z,11.70
2023-05-03T22:39:18.389Z,11.67
2023-05-03T22:41:45.049Z,11.63
2023-05-03T22:44:12.012Z,11.58
2023-05-03T22:46:38.656Z,11.56
2023-05-03T22:49:05.431Z,11.52
2023-05-03T22:51:32.170Z,11.49
2023-05-03T22:53:58.803Z,11.46
2023-05-03T22:56:25.451Z,11.42
2023-05-03T22:58:52.074Z,11.39
2023-05-03T23:01:18.882Z,11.36
2023-05-03T23:03:45.771Z,11.33
2023-05-03T23:06:12.520Z,11.29
2023-05-03T23:08:39.410Z,11.24
2023-05-03T23:11:06.020Z,11.22
2023-05-03T23:13:32.634Z,11.19
2023-05-03T23:15:59.412Z,11.13
2023-05-03T23:18:26.129Z,11.11
2023-05-03T23:20:52.993Z,11.06
2023-05-03T23:23:19.635Z,11.03
2023-05-03T23:25:49.314Z,11.00
2023-05-03T23:28:15.904Z,10.97
2023-05-03T23:30:43.904Z,10.93
2023-05-03T23:33:11.129Z,10.81
2023-05-03T23:35:38.458Z,10.83
2023-05-03T23:38:05.185Z,10.82
2023-05-03T23:40:31.892Z,10.78
2023-05-03T23:42:58.493Z,10.76
2023-05-03T23:45:25.139Z,10.72
2023-05-03T23:47:51.889Z,10.68
2023-05-03T23:50:19.196Z,10.66
2023-05-03T23:52:45.890Z,10.63
2023-05-03T23:55:12.494Z,10.61
2023-05-03T23:57:39.117Z,10.57
